createdAt,value
2022-10-01T00:01:19.789Z,2.70
2022-10-01T00:03:47.967Z,2.65
2022-10-01T00:06:18.622Z,2.40
2022-10-01T00:08:49.242Z,3.47
2022-10-01T00:11:20.894Z,2.70
2022-10-01T00:13:48.682Z,2.45
2022-10-01T00:16:19.271Z,3.58
2022-10-01T00:18:48.187Z,3.65
2022-10-01T00:21:21.278Z,3.83
2022-10-01T00:26:22.949Z,3.15
2022-10-01T00:28:55.656Z,2.78
2022-10-01T00:31:23.563Z,3.17
2022-10-01T00:33:54.908Z,4.93
2022-10-01T00:36:22.341Z,3.38
2022-10-01T00:38:49.625Z,2.60
2022-10-01T00:41:18.349Z,2.63
2022-10-01T00:43:49.868Z,3.75
2022-10-01T00:46:21.197Z,3.17
2022-10-01T00:49:01.101Z,3.15
2022-10-01T00:51:38.506Z,3.17
2022-10-01T00:54:10.336Z,3.10
2022-10-01T00:56:38.244Z,2.65
2022-10-01T00:59:07.120Z,3.42
2022-10-01T01:01:37.479Z,3.42
2022-10-01T01:04:16.617Z,4.20
2022-10-01T01:06:48.350Z,2.92
2022-10-01T01:09:15.650Z,3.42
2022-10-01T01:12:13.201Z,3.30
2022-10-01T01:15:14.255Z,4.80
2022-10-01T01:18:06.238Z,3.25
2022-10-01T01:20:55.430Z,3.92
2022-10-01T01:23:52.780Z,3.17
2022-10-01T01:26:35.148Z,3.70
2022-10-01T01:29:09.311Z,3.67
2022-10-01T01:31:46.294Z,2.95
2022-10-01T01:34:20.081Z,4.32
2022-10-01T01:36:58.575Z,2.90
2022-10-01T01:39:29.836Z,3.05
2022-10-01T01:42:01.144Z,3.38
2022-10-01T01:44:34.105Z,2.65
2022-10-01T01:47:04.043Z,3.90
2022-10-01T01:49:31.989Z,3.08
2022-10-01T01:52:13.414Z,3.15
2022-10-01T01:54:45.238Z,3.97
2022-10-01T01:57:15.306Z,4.72
2022-10-01T01:59:43.632Z,3.33
2022-10-01T02:02:19.240Z,3.60
2022-10-01T02:04:55.229Z,3.22
2022-10-01T02:08:00.060Z,3.50
2022-10-01T02:10:51.855Z,4.43
2022-10-01T02:13:25.254Z,4.25
2022-10-01T02:16:21.079Z,4.43
2022-10-01T02:19:00.670Z,4.80
2022-10-01T02:21:33.697Z,4.13
2022-10-01T02:24:08.107Z,4.95
2022-10-01T02:26:38.143Z,3.40
2022-10-01T02:29:12.609Z,3.45
2022-10-01T02:31:41.476Z,3.80
2022-10-01T02:34:12.603Z,4.47
2022-10-01T02:36:42.622Z,4.68
2022-10-01T02:39:11.495Z,3.35
2022-10-01T02:41:38.968Z,3.40
2022-10-01T02:44:08.585Z,3.35
2022-10-01T02:47:00.579Z,3.70
2022-10-01T02:49:30.884Z,3.85
2022-10-01T02:52:07.295Z,5.07
2022-10-01T02:54:42.847Z,4.72
2022-10-01T02:57:27.581Z,4.03
2022-10-01T02:59:59.169Z,4.00
2022-10-01T03:02:28.761Z,3.80
2022-10-01T03:04:59.147Z,3.05
2022-10-01T03:07:28.206Z,3.58
2022-10-01T03:09:56.842Z,4.35
2022-10-01T03:12:24.259Z,3.70
2022-10-01T03:14:52.049Z,3.67
2022-10-01T03:17:19.530Z,3.60
2022-10-01T03:19:46.865Z,3.60
2022-10-01T03:22:18.238Z,3.33
2022-10-01T03:24:45.539Z,3.75
2022-10-01T03:27:12.808Z,3.17
2022-10-01T03:29:40.148Z,3.75
2022-10-01T03:32:07.409Z,5.05
2022-10-01T03:34:34.795Z,3.45
2022-10-01T03:37:02.121Z,4.03
2022-10-01T03:39:29.373Z,4.05
2022-10-01T03:41:56.554Z,3.50
2022-10-01T03:44:23.795Z,3.30
2022-10-01T03:46:51.055Z,3.95
2022-10-01T03:49:18.256Z,3.85
2022-10-01T03:51:45.583Z,4.30
2022-10-01T03:54:12.820Z,3.33
2022-10-01T03:56:42.632Z,3.08
2022-10-01T03:59:11.165Z,4.57
2022-10-01T04:01:39.551Z,3.33
2022-10-01T04:04:07.258Z,3.40
2022-10-01T04:06:34.633Z,3.15
2022-10-01T04:09:01.968Z,3.53
2022-10-01T04:11:29.215Z,2.65
2022-10-01T04:13:57.975Z,3.80
2022-10-01T04:16:25.539Z,3.58
2022-10-01T04:18:53.151Z,3.33
2022-10-01T04:21:20.864Z,3.28
2022-10-01T04:23:49.871Z,2.92
2022-10-01T04:26:19.055Z,2.95
2022-10-01T04:28:46.963Z,2.85
2022-10-01T04:31:26.647Z,3.15
2022-10-01T04:33:57.290Z,3.63
2022-10-01T04:36:25.626Z,2.95
2022-10-01T04:38:57.972Z,3.33
2022-10-01T04:41:30.242Z,3.25
2022-10-01T04:43:59.932Z,2.85
2022-10-01T04:46:28.699Z,3.33
2022-10-01T04:48:55.786Z,3.53
2022-10-01T04:51:23.086Z,3.15
2022-10-01T04:53:50.270Z,3.40
2022-10-01T04:56:17.360Z,2.75
2022-10-01T04:58:44.763Z,3.38
2022-10-01T05:01:11.988Z,4.32
2022-10-01T05:03:39.139Z,2.70
2022-10-01T05:06:06.301Z,3.40
2022-10-01T05:08:33.371Z,3.97
2022-10-01T05:11:00.678Z,3.03
2022-10-01T05:13:30.365Z,3.45
2022-10-01T05:15:58.552Z,3.10
2022-10-01T05:18:25.984Z,2.45
2022-10-01T05:20:53.290Z,3.33
2022-10-01T05:23:20.561Z,2.75
2022-10-01T05:25:47.835Z,3.35
2022-10-01T05:28:19.836Z,2.95
2022-10-01T05:30:50.986Z,3.03
2022-10-01T05:33:18.477Z,3.38
2022-10-01T05:35:45.842Z,3.30
2022-10-01T05:38:14.042Z,3.42
2022-10-01T05:40:45.334Z,3.00
2022-10-01T05:43:13.012Z,3.17
2022-10-01T05:45:41.088Z,3.03
2022-10-01T05:48:09.305Z,3.38
2022-10-01T05:50:42.460Z,3.08
2022-10-01T05:53:14.036Z,3.30
2022-10-01T05:55:41.290Z,3.13
2022-10-01T05:58:11.081Z,2.80
2022-10-01T06:00:40.072Z,2.63
2022-10-01T06:03:07.970Z,3.35
2022-10-01T06:05:36.097Z,2.95
2022-10-01T06:08:07.284Z,3.60
2022-10-01T06:10:36.827Z,2.95
2022-10-01T06:13:05.704Z,3.20
2022-10-01T06:15:37.814Z,2.97
2022-10-01T06:18:09.427Z,2.90
2022-10-01T06:20:37.090Z,3.25
2022-10-01T06:23:07.352Z,3.17
2022-10-01T06:25:36.540Z,3.13
2022-10-01T06:28:05.962Z,2.78
2022-10-01T06:30:36.310Z,4.32
2022-10-01T06:33:09.651Z,3.00
2022-10-01T06:35:41.943Z,3.55
2022-10-01T06:38:10.556Z,3.15
2022-10-01T06:40:38.092Z,3.03
2022-10-01T06:43:08.162Z,3.35
2022-10-01T06:45:43.619Z,3.15
2022-10-01T06:48:14.648Z,3.22
2022-10-01T06:50:45.753Z,3.55
2022-10-01T06:53:14.562Z,2.95
2022-10-01T06:55:42.270Z,4.22
2022-10-01T06:58:26.285Z,3.25
2022-10-01T07:00:59.402Z,2.90
2022-10-01T07:03:27.891Z,2.88
2022-10-01T07:06:02.251Z,2.80
2022-10-01T07:08:29.748Z,2.97
2022-10-01T07:11:02.482Z,2.58
2022-10-01T07:13:30.145Z,2.30
2022-10-01T07:15:57.433Z,3.53
2022-10-01T07:18:24.794Z,2.80
2022-10-01T07:20:52.168Z,3.00
2022-10-01T07:23:19.494Z,3.47
2022-10-01T07:25:46.840Z,2.88
2022-10-01T07:28:18.472Z,3.17
2022-10-01T07:30:56.646Z,2.65
2022-10-01T07:33:23.925Z,3.97
2022-10-01T07:35:51.257Z,3.53
2022-10-01T07:38:18.588Z,3.17
2022-10-01T07:40:51.732Z,4.22
2022-10-01T07:43:19.193Z,4.18
2022-10-01T07:46:05.100Z,3.33
2022-10-01T07:48:32.510Z,3.80
2022-10-01T07:50:59.775Z,4.13
2022-10-01T07:53:27.544Z,5.60
2022-10-01T07:55:54.836Z,3.45
2022-10-01T07:58:24.078Z,2.88
2022-10-01T08:00:56.036Z,4.22
2022-10-01T08:03:23.743Z,3.67
2022-10-01T08:05:53.012Z,3.42
2022-10-01T08:08:20.302Z,4.57
2022-10-01T08:10:50.080Z,4.25
2022-10-01T08:14:35.118Z,4.20
2022-10-01T08:17:02.473Z,2.78
2022-10-01T08:19:30.102Z,4.20
2022-10-01T08:21:57.400Z,7.75
2022-10-01T08:24:24.925Z,7.80
2022-10-01T08:26:55.959Z,12.02
2022-10-01T08:29:23.365Z,9.00
2022-10-01T08:31:50.763Z,6.55
2022-10-01T08:34:18.179Z,6.57
2022-10-01T08:36:45.854Z,6.45
2022-10-01T08:39:14.799Z,4.68
2022-10-01T08:42:08.135Z,4.47
2022-10-01T08:44:43.110Z,4.47
2022-10-01T08:47:26.355Z,4.50
2022-10-01T08:52:40.914Z,4.97
2022-10-01T08:55:16.874Z,4.13
2022-10-01T08:57:51.260Z,4.13
2022-10-01T09:00:20.368Z,3.38
2022-10-01T09:02:48.259Z,4.95
2022-10-01T09:05:34.044Z,5.05
2022-10-01T09:08:24.145Z,4.68
2022-10-01T09:11:04.340Z,3.60
2022-10-01T09:13:40.242Z,4.47
2022-10-01T09:16:25.466Z,6.75
2022-10-01T09:19:01.660Z,7.53
2022-10-01T09:21:40.668Z,6.80
2022-10-01T09:24:33.742Z,10.48
2022-10-01T09:27:01.872Z,6.70
2022-10-01T09:29:41.421Z,5.70
2022-10-01T09:32:16.014Z,5.70
2022-10-01T09:34:44.791Z,7.13
2022-10-01T09:38:01.200Z,7.47
2022-10-01T09:40:55.668Z,7.00
2022-10-01T09:43:26.395Z,6.55
2022-10-01T09:45:55.024Z,9.30
2022-10-01T09:48:28.498Z,5.50
2022-10-01T09:51:07.027Z,8.82
2022-10-01T09:53:41.218Z,7.57
2022-10-01T09:56:15.496Z,6.20
2022-10-01T09:58:47.926Z,6.68
2022-10-01T10:01:28.626Z,9.68
2022-10-01T10:03:57.853Z,4.85
2022-10-01T10:06:30.582Z,5.05
2022-10-01T10:09:01.217Z,5.95
2022-10-01T10:11:31.562Z,4.00
2022-10-01T10:14:02.465Z,5.75
2022-10-01T10:16:34.371Z,5.57
2022-10-01T10:19:09.678Z,4.97
2022-10-01T10:21:37.382Z,5.32
2022-10-01T10:24:22.253Z,3.67
2022-10-01T10:26:55.828Z,6.55
2022-10-01T10:29:32.142Z,4.32
2022-10-01T10:32:04.197Z,4.75
2022-10-01T10:34:38.349Z,5.22
2022-10-01T10:37:14.666Z,4.10
2022-10-01T10:39:47.531Z,4.68
2022-10-01T10:42:15.887Z,6.05
2022-10-01T10:44:46.947Z,5.00
2022-10-01T10:47:16.685Z,11.05
2022-10-01T10:49:45.838Z,3.65
2022-10-01T10:52:30.152Z,5.10
2022-10-01T10:54:59.431Z,7.80
2022-10-01T10:57:31.705Z,7.80
2022-10-01T11:00:01.570Z,6.55
2022-10-01T11:02:31.462Z,6.53
2022-10-01T11:05:03.901Z,5.40
2022-10-01T11:07:31.978Z,5.38
2022-10-01T11:10:01.995Z,7.72
2022-10-01T11:12:56.697Z,8.00
2022-10-01T11:15:30.045Z,6.20
2022-10-01T11:18:16.029Z,5.25
2022-10-01T11:21:12.847Z,5.55
2022-10-01T11:24:01.505Z,6.45
2022-10-01T11:26:40.900Z,5.63
2022-10-01T11:29:16.160Z,8.35
2022-10-01T11:32:19.595Z,7.95
2022-10-01T11:35:09.966Z,7.65
2022-10-01T11:38:00.544Z,8.10
2022-10-01T11:40:35.139Z,7.00
2022-10-01T11:43:26.647Z,5.00
2022-10-01T11:46:03.833Z,8.32
2022-10-01T11:48:38.276Z,6.20
2022-10-01T11:51:12.546Z,4.95
2022-10-01T11:53:46.072Z,5.55
2022-10-01T11:56:57.639Z,6.25
2022-10-01T11:59:29.507Z,4.40
2022-10-01T12:02:18.436Z,6.10
2022-10-01T12:04:52.556Z,6.38
2022-10-01T12:07:43.157Z,7.03
2022-10-01T12:10:25.712Z,7.13
2022-10-01T12:13:07.441Z,6.50
2022-10-01T12:16:13.023Z,7.45
2022-10-01T12:18:55.651Z,11.82
2022-10-01T12:21:43.584Z,10.77
2022-10-01T12:24:16.312Z,14.13
2022-10-01T12:26:48.829Z,12.88
2022-10-01T12:29:41.816Z,12.25
2022-10-01T12:32:14.924Z,14.45
2022-10-01T12:35:04.304Z,13.10
2022-10-01T12:37:50.078Z,12.98
2022-10-01T12:40:30.935Z,10.73
2022-10-01T12:43:07.299Z,6.82
2022-10-01T12:45:37.530Z,6.57
2022-10-01T12:48:31.236Z,10.02
2022-10-01T12:51:10.444Z,6.63
2022-10-01T12:53:54.590Z,6.65
2022-10-01T12:56:34.425Z,4.93
2022-10-01T12:59:41.723Z,5.28
2022-10-01T13:02:46.442Z,4.85
2022-10-01T13:06:11.096Z,3.70
2022-10-01T13:08:57.733Z,5.28
2022-10-01T13:11:55.969Z,5.93
2022-10-01T13:14:23.736Z,6.57
2022-10-01T13:16:56.667Z,5.60
2022-10-01T13:19:30.350Z,5.05
2022-10-01T13:22:23.091Z,4.22
2022-10-01T13:25:19.005Z,4.20
2022-10-01T13:28:03.675Z,4.80
2022-10-01T13:30:55.244Z,7.07
2022-10-01T13:33:28.371Z,4.03
2022-10-01T13:38:31.098Z,4.15
2022-10-01T13:41:01.416Z,5.75
2022-10-01T13:43:30.642Z,5.38
2022-10-01T13:46:07.043Z,4.72
2022-10-01T13:48:37.143Z,5.43
2022-10-01T13:51:12.687Z,5.07
2022-10-01T13:53:42.943Z,5.38
2022-10-01T13:56:13.100Z,4.05
2022-10-01T13:58:42.856Z,5.75
2022-10-01T14:01:21.349Z,4.97
2022-10-01T14:04:20.116Z,4.53
2022-10-01T14:06:54.331Z,6.35
2022-10-01T14:09:29.550Z,6.35
2022-10-01T14:12:36.425Z,5.95
2022-10-01T14:15:32.604Z,6.25
2022-10-01T14:18:04.549Z,5.97
2022-10-01T14:20:45.620Z,5.47
2022-10-01T14:23:16.101Z,4.75
2022-10-01T14:26:19.052Z,4.78
2022-10-01T14:29:05.773Z,5.05
2022-10-01T14:31:41.398Z,5.72
2022-10-01T14:34:11.615Z,5.47
2022-10-01T14:36:50.973Z,5.13
2022-10-01T14:39:23.656Z,5.55
2022-10-01T14:41:54.104Z,5.20
2022-10-01T14:44:24.118Z,5.03
2022-10-01T14:46:53.822Z,4.22
2022-10-01T14:49:25.948Z,4.25
2022-10-01T14:51:59.850Z,4.33
2022-10-01T14:54:28.954Z,5.18
2022-10-01T14:56:56.682Z,4.90
2022-10-01T14:59:37.500Z,4.38
2022-10-01T15:02:18.414Z,7.00
2022-10-01T15:04:50.980Z,4.93
2022-10-01T15:07:19.137Z,4.38
2022-10-01T15:09:47.478Z,4.10
2022-10-01T15:12:17.269Z,7.13
2022-10-01T15:14:47.001Z,4.40
2022-10-01T15:17:23.399Z,4.22
2022-10-01T15:19:54.214Z,4.30
2022-10-01T15:22:27.027Z,4.30
2022-10-01T15:25:00.873Z,4.68
2022-10-01T15:27:28.385Z,4.40
2022-10-01T15:29:58.696Z,4.35
2022-10-01T15:32:28.124Z,5.85
2022-10-01T15:34:59.837Z,3.97
2022-10-01T15:37:33.917Z,4.15
2022-10-01T15:40:02.562Z,4.43
2022-10-01T15:42:32.989Z,3.90
2022-10-01T15:45:10.233Z,3.60
2022-10-01T15:47:52.212Z,4.25
2022-10-01T15:50:22.128Z,3.75
2022-10-01T15:52:54.845Z,4.47
2022-10-01T15:55:28.121Z,3.97
2022-10-01T16:01:00.676Z,3.78
2022-10-01T16:03:32.923Z,3.65
2022-10-01T16:06:02.081Z,3.70
2022-10-01T16:08:39.390Z,5.50
2022-10-01T16:11:20.766Z,4.07
2022-10-01T16:13:49.798Z,3.65
2022-10-01T16:16:23.499Z,3.53
2022-10-01T16:18:58.623Z,3.78
2022-10-01T16:21:26.469Z,3.30
2022-10-01T16:23:55.950Z,3.95
2022-10-01T16:26:34.518Z,3.63
2022-10-01T16:29:06.422Z,4.88
2022-10-01T16:31:35.900Z,3.92
2022-10-01T16:34:09.427Z,4.32
2022-10-01T16:36:38.411Z,3.75
2022-10-01T16:39:06.625Z,3.20
2022-10-01T16:41:35.098Z,4.10
2022-10-01T16:44:03.493Z,4.82
2022-10-01T16:46:30.619Z,4.00
2022-10-01T16:48:57.970Z,4.85
2022-10-01T16:51:25.241Z,3.03
2022-10-01T16:53:54.519Z,3.25
2022-10-01T16:56:26.912Z,3.40
2022-10-01T16:58:54.679Z,3.70
2022-10-01T17:01:22.053Z,3.30
2022-10-01T17:03:49.202Z,3.22
2022-10-01T17:06:16.249Z,3.40
2022-10-01T17:08:43.418Z,3.55
2022-10-01T17:11:12.743Z,3.00
2022-10-01T17:13:40.281Z,3.63
2022-10-01T17:16:08.720Z,4.72
2022-10-01T17:18:35.962Z,3.28
2022-10-01T17:21:04.753Z,3.30
2022-10-01T17:23:32.034Z,3.75
2022-10-01T17:25:59.237Z,3.10
2022-10-01T17:28:26.360Z,3.55
2022-10-01T17:30:53.689Z,4.32
2022-10-01T17:33:20.923Z,3.35
2022-10-01T17:35:51.954Z,3.70
2022-10-01T17:38:19.876Z,4.28
2022-10-01T17:40:48.046Z,3.38
2022-10-01T17:43:16.993Z,3.67
2022-10-01T17:45:52.474Z,3.42
2022-10-01T17:48:21.836Z,3.42
2022-10-01T17:50:58.575Z,3.88
2022-10-01T17:53:28.523Z,3.67
2022-10-01T17:56:04.785Z,3.53
2022-10-01T17:58:32.062Z,3.60
2022-10-01T18:00:59.411Z,3.90
2022-10-01T18:03:26.844Z,3.58
2022-10-01T18:06:03.119Z,3.45
2022-10-01T18:08:51.236Z,4.20
2022-10-01T18:11:19.078Z,3.53
2022-10-01T18:13:46.433Z,3.55
2022-10-01T18:16:18.822Z,3.47
2022-10-01T18:21:34.060Z,3.50
2022-10-01T18:24:04.552Z,4.50
2022-10-01T18:26:32.891Z,5.00
2022-10-01T18:29:00.819Z,4.03
2022-10-01T18:31:40.687Z,3.83
2022-10-01T18:34:20.703Z,3.97
2022-10-01T18:37:05.217Z,3.38
2022-10-01T18:39:40.868Z,3.38
2022-10-01T18:42:29.860Z,3.28
2022-10-01T18:44:59.484Z,4.35
2022-10-01T18:47:51.079Z,3.75
2022-10-01T18:50:31.432Z,3.60
2022-10-01T18:53:14.530Z,3.53
2022-10-01T18:56:03.778Z,4.30
2022-10-01T18:59:00.726Z,4.25
2022-10-01T19:01:56.214Z,4.57
2022-10-01T19:04:35.382Z,4.35
2022-10-01T19:07:24.204Z,3.90
2022-10-01T19:10:20.935Z,5.25
2022-10-01T19:13:16.610Z,4.18
2022-10-01T19:16:17.729Z,5.15
2022-10-01T19:19:12.933Z,5.63
2022-10-01T19:21:51.221Z,8.98
2022-10-01T19:24:44.797Z,9.02
2022-10-01T19:30:15.434Z,6.78
2022-10-01T19:32:49.917Z,6.20
2022-10-01T19:35:20.593Z,6.40
2022-10-01T19:37:55.181Z,6.10
2022-10-01T19:40:49.228Z,6.35
2022-10-01T19:43:22.733Z,5.22
2022-10-01T19:46:00.863Z,6.30
2022-10-01T19:48:44.129Z,6.60
2022-10-01T19:53:48.311Z,4.05
2022-10-01T19:56:20.506Z,3.42
2022-10-01T19:58:47.712Z,3.33
2022-10-01T20:01:20.573Z,3.75
2022-10-01T20:03:57.434Z,4.25
2022-10-01T20:06:27.550Z,4.63
2022-10-01T20:08:59.406Z,4.95
2022-10-01T20:11:42.307Z,4.00
2022-10-01T20:14:59.204Z,5.53
2022-10-01T20:17:42.406Z,6.38
2022-10-01T20:23:24.008Z,4.43
2022-10-01T20:26:29.052Z,5.15
2022-10-01T20:29:20.676Z,4.20
2022-10-01T20:32:01.727Z,4.50
2022-10-01T20:35:02.921Z,6.15
2022-10-01T20:37:54.606Z,3.33
2022-10-01T20:40:28.667Z,4.68
2022-10-01T20:43:09.361Z,5.15
2022-10-01T20:45:39.389Z,8.73
2022-10-01T20:48:29.802Z,5.38
2022-10-01T20:51:27.226Z,3.90
2022-10-01T20:53:56.792Z,4.13
2022-10-01T20:56:33.310Z,5.97
2022-10-01T20:59:27.376Z,3.90
2022-10-01T21:02:04.522Z,5.22
2022-10-01T21:04:41.181Z,4.50
2022-10-01T21:07:26.902Z,5.13
2022-10-01T21:09:58.443Z,4.28
2022-10-01T21:12:38.018Z,5.28
2022-10-01T21:15:11.743Z,4.05
2022-10-01T21:17:53.475Z,5.50
2022-10-01T21:20:34.227Z,4.53
2022-10-01T21:23:10.606Z,5.40
2022-10-01T21:25:53.991Z,4.65
2022-10-01T21:28:45.598Z,4.22
2022-10-01T21:31:40.356Z,4.72
2022-10-01T21:34:34.039Z,4.50
2022-10-01T21:37:10.140Z,4.70
2022-10-01T21:39:53.537Z,3.50
2022-10-01T21:42:45.069Z,5.70
2022-10-01T21:45:43.357Z,4.10
2022-10-01T21:48:22.356Z,4.90
2022-10-01T21:51:14.919Z,5.95
2022-10-01T21:54:02.711Z,3.33
2022-10-01T21:56:38.913Z,3.88
2022-10-01T21:59:20.452Z,3.65
2022-10-01T22:02:03.428Z,3.15
2022-10-01T22:04:36.671Z,8.07
2022-10-01T22:07:15.989Z,5.85
2022-10-01T22:10:34.763Z,4.57
2022-10-01T22:13:06.566Z,3.80
2022-10-01T22:15:40.038Z,3.83
2022-10-01T22:18:15.060Z,4.28
2022-10-01T22:20:45.046Z,4.85
2022-10-01T22:23:17.617Z,3.90
2022-10-01T22:25:58.611Z,4.00
2022-10-01T22:28:34.147Z,4.85
2022-10-01T22:31:04.540Z,5.40
2022-10-01T22:33:45.679Z,4.50
2022-10-01T22:36:31.571Z,5.05
2022-10-01T22:39:12.544Z,5.15
2022-10-01T22:41:47.125Z,4.03
2022-10-01T22:44:20.032Z,5.43
2022-10-01T22:46:47.319Z,6.50
2022-10-01T22:49:27.630Z,6.45
2022-10-01T22:52:31.626Z,5.13
2022-10-01T22:55:12.312Z,7.35
2022-10-01T22:57:51.590Z,6.75
2022-10-01T23:00:21.280Z,5.50
2022-10-01T23:03:19.242Z,6.85
2022-10-01T23:06:17.985Z,4.22
2022-10-01T23:09:05.168Z,4.50
2022-10-01T23:11:45.702Z,6.32
2022-10-01T23:14:34.023Z,4.47
2022-10-01T23:17:10.873Z,4.60
2022-10-01T23:19:59.497Z,3.83
2022-10-01T23:22:26.633Z,5.97
2022-10-01T23:25:15.177Z,7.00
2022-10-01T23:27:51.202Z,5.07
2022-10-01T23:30:20.278Z,9.25
2022-10-01T23:32:54.759Z,3.95
2022-10-01T23:35:40.246Z,4.85
2022-10-01T23:38:24.374Z,4.82
2022-10-01T23:40:52.279Z,4.78
2022-10-01T23:43:29.043Z,4.22
2022-10-01T23:46:02.687Z,6.47
2022-10-01T23:48:53.178Z,4.07
2022-10-01T23:51:46.764Z,4.90
2022-10-01T23:54:26.860Z,4.05
2022-10-01T23:56:58.681Z,5.82
2022-10-01T23:59:32.256Z,4.65
